Escuta Aérea – Aeroporto Internacional de Fortaleza

METAR: 

SBFZ 200300Z 09016KT 9999 SCT020 26/22 Q1014

TAF: 

TAF TAF SBFZ 200100Z 2006/2106 13012KT 9999 SCT020 TN25/2009Z TX31/2015Z BECMG 2010/2012 10018KT BECMG 2021/2022 10012KT RMK PEI

A escuta poderá ser executada automaticamente